sensor_id;sensor_type;location;lat;lon;timestamp;P1;durP1;ratioP1;P2;durP2;ratioP2
3712;SDS011;1872;51.406;6.856;2023-07-31T00:00:30;10.27;;;6.17;;
3712;SDS011;1872;51.406;6.856;2023-07-31T00:02:55;8.33;;;5.27;;
3712;SDS011;1872;51.406;6.856;2023-07-31T00:05:21;8.97;;;5.07;;
3712;SDS011;1872;51.406;6.856;2023-07-31T00:07:47;10.90;;;4.80;;
3712;SDS011;1872;51.406;6.856;2023-07-31T00:10:13;12.93;;;5.10;;
3712;SDS011;1872;51.406;6.856;2023-07-31T00:12:39;8.70;;;5.60;;
3712;SDS011;1872;51.406;6.856;2023-07-31T00:15:06;7.80;;;5.50;;
3712;SDS011;1872;51.406;6.856;2023-07-31T00:17:32;5.10;;;4.60;;
3712;SDS011;1872;51.406;6.856;2023-07-31T00:19:58;11.27;;;6.23;;
3712;SDS011;1872;51.406;6.856;2023-07-31T00:22:23;9.60;;;5.43;;
3712;SDS011;1872;51.406;6.856;2023-07-31T00:24:49;6.47;;;5.00;;
3712;SDS011;1872;51.406;6.856;2023-07-31T00:27:15;11.13;;;5.27;;
3712;SDS011;1872;51.406;6.856;2023-07-31T00:29:41;7.17;;;5.10;;
3712;SDS011;1872;51.406;6.856;2023-07-31T00:32:07;7.80;;;5.20;;
3712;SDS011;1872;51.406;6.856;2023-07-31T00:34:33;7.00;;;5.57;;
3712;SDS011;1872;51.406;6.856;2023-07-31T00:36:58;9.13;;;5.47;;
3712;SDS011;1872;51.406;6.856;2023-07-31T00:39:24;9.30;;;5.10;;
3712;SDS011;1872;51.406;6.856;2023-07-31T00:41:50;7.60;;;5.30;;
3712;SDS011;1872;51.406;6.856;2023-07-31T00:44:15;12.03;;;5.47;;
3712;SDS011;1872;51.406;6.856;2023-07-31T00:46:41;7.03;;;4.70;;
3712;SDS011;1872;51.406;6.856;2023-07-31T00:49:07;6.10;;;4.90;;
3712;SDS011;1872;51.406;6.856;2023-07-31T00:51:33;10.20;;;5.80;;
3712;SDS011;1872;51.406;6.856;2023-07-31T00:53:58;7.17;;;4.70;;
3712;SDS011;1872;51.406;6.856;2023-07-31T00:56:25;6.13;;;4.83;;
3712;SDS011;1872;51.406;6.856;2023-07-31T00:58:52;8.20;;;5.70;;
3712;SDS011;1872;51.406;6.856;2023-07-31T01:01:18;9.30;;;5.23;;
3712;SDS011;1872;51.406;6.856;2023-07-31T01:03:44;8.50;;;5.20;;
3712;SDS011;1872;51.406;6.856;2023-07-31T01:06:44;7.50;;;4.80;;
3712;SDS011;1872;51.406;6.856;2023-07-31T01:09:04;7.80;;;5.00;;
3712;SDS011;1872;51.406;6.856;2023-07-31T01:11:43;8.10;;;5.27;;
3712;SDS011;1872;51.406;6.856;2023-07-31T01:14:15;11.20;;;5.60;;
3712;SDS011;1872;51.406;6.856;2023-07-31T01:16:41;7.27;;;4.70;;
3712;SDS011;1872;51.406;6.856;2023-07-31T01:19:06;7.43;;;4.83;;
3712;SDS011;1872;51.406;6.856;2023-07-31T01:24:36;10.70;;;4.63;;
3712;SDS011;1872;51.406;6.856;2023-07-31T01:27:12;8.03;;;4.90;;
3712;SDS011;1872;51.406;6.856;2023-07-31T01:29:49;7.53;;;4.73;;
3712;SDS011;1872;51.406;6.856;2023-07-31T01:32:23;6.33;;;4.43;;
3712;SDS011;1872;51.406;6.856;2023-07-31T01:34:52;7.10;;;4.73;;
3712;SDS011;1872;51.406;6.856;2023-07-31T01:37:18;6.90;;;4.57;;
3712;SDS011;1872;51.406;6.856;2023-07-31T01:39:44;7.93;;;4.93;;
3712;SDS011;1872;51.406;6.856;2023-07-31T01:42:09;7.80;;;4.33;;
3712;SDS011;1872;51.406;6.856;2023-07-31T01:44:35;8.40;;;4.50;;
3712;SDS011;1872;51.406;6.856;2023-07-31T01:47:01;10.20;;;5.37;;
3712;SDS011;1872;51.406;6.856;2023-07-31T01:49:26;15.37;;;5.43;;
3712;SDS011;1872;51.406;6.856;2023-07-31T01:51:52;9.23;;;4.60;;
3712;SDS011;1872;51.406;6.856;2023-07-31T01:54:18;7.97;;;4.53;;
3712;SDS011;1872;51.406;6.856;2023-07-31T01:56:43;9.33;;;4.83;;
3712;SDS011;1872;51.406;6.856;2023-07-31T01:59:09;5.70;;;4.90;;
3712;SDS011;1872;51.406;6.856;2023-07-31T02:01:34;9.33;;;4.47;;
3712;SDS011;1872;51.406;6.856;2023-07-31T02:04:00;12.30;;;4.27;;
3712;SDS011;1872;51.406;6.856;2023-07-31T02:06:26;6.30;;;4.60;;
3712;SDS011;1872;51.406;6.856;2023-07-31T02:08:52;6.13;;;4.53;;
3712;SDS011;1872;51.406;6.856;2023-07-31T02:11:17;8.67;;;4.40;;
3712;SDS011;1872;51.406;6.856;2023-07-31T02:13:43;9.23;;;4.47;;
3712;SDS011;1872;51.406;6.856;2023-07-31T02:16:09;6.67;;;5.07;;
3712;SDS011;1872;51.406;6.856;2023-07-31T02:18:34;9.20;;;5.50;;
3712;SDS011;1872;51.406;6.856;2023-07-31T02:21:00;9.53;;;5.40;;
3712;SDS011;1872;51.406;6.856;2023-07-31T02:23:25;13.40;;;5.40;;
3712;SDS011;1872;51.406;6.856;2023-07-31T02:25:51;8.93;;;5.80;;
3712;SDS011;1872;51.406;6.856;2023-07-31T02:28:17;14.70;;;4.80;;
3712;SDS011;1872;51.406;6.856;2023-07-31T02:30:45;9.47;;;5.60;;
3712;SDS011;1872;51.406;6.856;2023-07-31T02:33:11;7.63;;;5.20;;
3712;SDS011;1872;51.406;6.856;2023-07-31T02:35:37;6.13;;;4.20;;
3712;SDS011;1872;51.406;6.856;2023-07-31T02:38:02;12.13;;;5.70;;
3712;SDS011;1872;51.406;6.856;2023-07-31T02:40:28;5.90;;;4.67;;
3712;SDS011;1872;51.406;6.856;2023-07-31T02:42:54;10.63;;;5.67;;
3712;SDS011;1872;51.406;6.856;2023-07-31T02:45:19;11.30;;;5.50;;
3712;SDS011;1872;51.406;6.856;2023-07-31T02:47:45;7.70;;;4.30;;
3712;SDS011;1872;51.406;6.856;2023-07-31T02:50:10;8.13;;;4.93;;
3712;SDS011;1872;51.406;6.856;2023-07-31T02:52:36;8.23;;;5.30;;
3712;SDS011;1872;51.406;6.856;2023-07-31T02:55:02;10.03;;;6.50;;
3712;SDS011;1872;51.406;6.856;2023-07-31T02:57:27;7.83;;;4.30;;
3712;SDS011;1872;51.406;6.856;2023-07-31T02:59:53;9.00;;;5.17;;
3712;SDS011;1872;51.406;6.856;2023-07-31T03:02:19;10.80;;;5.37;;
3712;SDS011;1872;51.406;6.856;2023-07-31T03:04:44;8.77;;;5.10;;
3712;SDS011;1872;51.406;6.856;2023-07-31T03:07:10;7.43;;;4.40;;
3712;SDS011;1872;51.406;6.856;2023-07-31T03:09:36;9.13;;;4.73;;
3712;SDS011;1872;51.406;6.856;2023-07-31T03:12:02;7.83;;;4.70;;
3712;SDS011;1872;51.406;6.856;2023-07-31T03:14:28;11.30;;;5.47;;
3712;SDS011;1872;51.406;6.856;2023-07-31T03:16:54;7.00;;;5.20;;
3712;SDS011;1872;51.406;6.856;2023-07-31T03:19:19;6.70;;;4.43;;
3712;SDS011;1872;51.406;6.856;2023-07-31T03:21:45;6.80;;;4.53;;
3712;SDS011;1872;51.406;6.856;2023-07-31T03:24:10;8.33;;;5.13;;
3712;SDS011;1872;51.406;6.856;2023-07-31T03:26:37;8.33;;;6.10;;
3712;SDS011;1872;51.406;6.856;2023-07-31T03:29:03;7.67;;;5.33;;
3712;SDS011;1872;51.406;6.856;2023-07-31T03:31:29;13.20;;;5.90;;
3712;SDS011;1872;51.406;6.856;2023-07-31T03:33:54;8.00;;;5.73;;
3712;SDS011;1872;51.406;6.856;2023-07-31T03:36:20;11.97;;;5.10;;
3712;SDS011;1872;51.406;6.856;2023-07-31T03:38:46;8.50;;;5.10;;
3712;SDS011;1872;51.406;6.856;2023-07-31T03:41:12;6.37;;;4.87;;
3712;SDS011;1872;51.406;6.856;2023-07-31T03:43:37;8.13;;;5.20;;
3712;SDS011;1872;51.406;6.856;2023-07-31T03:46:03;7.50;;;5.20;;
3712;SDS011;1872;51.406;6.856;2023-07-31T03:48:29;5.63;;;4.90;;
3712;SDS011;1872;51.406;6.856;2023-07-31T03:50:55;9.83;;;4.30;;
3712;SDS011;1872;51.406;6.856;2023-07-31T03:53:20;7.40;;;5.00;;
3712;SDS011;1872;51.406;6.856;2023-07-31T03:55:46;8.67;;;5.43;;
3712;SDS011;1872;51.406;6.856;2023-07-31T03:58:14;7.60;;;5.07;;
3712;SDS011;1872;51.406;6.856;2023-07-31T04:00:40;11.57;;;5.37;;
3712;SDS011;1872;51.406;6.856;2023-07-31T04:03:06;7.40;;;5.67;;
3712;SDS011;1872;51.406;6.856;2023-07-31T04:05:32;8.40;;;5.07;;
3712;SDS011;1872;51.406;6.856;2023-07-31T04:07:58;5.77;;;4.53;;
3712;SDS011;1872;51.406;6.856;2023-07-31T04:10:23;8.97;;;5.23;;
3712;SDS011;1872;51.406;6.856;2023-07-31T04:12:49;12.83;;;5.63;;
3712;SDS011;1872;51.406;6.856;2023-07-31T04:15:15;7.27;;;5.33;;
3712;SDS011;1872;51.406;6.856;2023-07-31T04:17:40;8.50;;;6.20;;
3712;SDS011;1872;51.406;6.856;2023-07-31T04:20:06;9.60;;;5.50;;
3712;SDS011;1872;51.406;6.856;2023-07-31T04:22:32;6.33;;;4.67;;
3712;SDS011;1872;51.406;6.856;2023-07-31T04:24:58;9.97;;;5.60;;
3712;SDS011;1872;51.406;6.856;2023-07-31T04:27:23;9.73;;;5.70;;
3712;SDS011;1872;51.406;6.856;2023-07-31T04:29:50;6.80;;;4.80;;
3712;SDS011;1872;51.406;6.856;2023-07-31T04:32:16;6.97;;;4.67;;
3712;SDS011;1872;51.406;6.856;2023-07-31T04:34:42;8.43;;;5.40;;
3712;SDS011;1872;51.406;6.856;2023-07-31T04:37:08;7.93;;;7.13;;
3712;SDS011;1872;51.406;6.856;2023-07-31T04:39:33;7.50;;;5.40;;
3712;SDS011;1872;51.406;6.856;2023-07-31T04:41:59;14.23;;;6.90;;
3712;SDS011;1872;51.406;6.856;2023-07-31T04:44:25;8.50;;;5.77;;
3712;SDS011;1872;51.406;6.856;2023-07-31T04:46:50;10.87;;;6.03;;
3712;SDS011;1872;51.406;6.856;2023-07-31T04:49:16;7.93;;;5.70;;
3712;SDS011;1872;51.406;6.856;2023-07-31T04:51:41;7.00;;;5.60;;
3712;SDS011;1872;51.406;6.856;2023-07-31T04:54:07;7.43;;;5.50;;
3712;SDS011;1872;51.406;6.856;2023-07-31T04:56:33;13.07;;;6.07;;
3712;SDS011;1872;51.406;6.856;2023-07-31T04:58:59;6.50;;;5.00;;
3712;SDS011;1872;51.406;6.856;2023-07-31T05:01:25;6.23;;;5.27;;
3712;SDS011;1872;51.406;6.856;2023-07-31T05:03:51;10.63;;;5.53;;
3712;SDS011;1872;51.406;6.856;2023-07-31T05:06:16;10.63;;;8.00;;
3712;SDS011;1872;51.406;6.856;2023-07-31T05:08:42;8.23;;;5.70;;
3712;SDS011;1872;51.406;6.856;2023-07-31T05:11:08;8.33;;;5.53;;
3712;SDS011;1872;51.406;6.856;2023-07-31T05:13:33;9.13;;;6.03;;
3712;SDS011;1872;51.406;6.856;2023-07-31T05:15:59;9.13;;;5.43;;
3712;SDS011;1872;51.406;6.856;2023-07-31T05:18:24;10.67;;;6.10;;
3712;SDS011;1872;51.406;6.856;2023-07-31T05:20:50;7.70;;;6.10;;
3712;SDS011;1872;51.406;6.856;2023-07-31T05:23:16;9.60;;;5.43;;
3712;SDS011;1872;51.406;6.856;2023-07-31T05:25:41;9.47;;;6.43;;
3712;SDS011;1872;51.406;6.856;2023-07-31T05:28:07;7.67;;;5.63;;
3712;SDS011;1872;51.406;6.856;2023-07-31T05:30:33;11.53;;;6.43;;
3712;SDS011;1872;51.406;6.856;2023-07-31T05:32:58;10.10;;;5.93;;
3712;SDS011;1872;51.406;6.856;2023-07-31T05:35:24;7.13;;;5.73;;
3712;SDS011;1872;51.406;6.856;2023-07-31T05:37:49;13.17;;;6.60;;
3712;SDS011;1872;51.406;6.856;2023-07-31T05:40:15;11.17;;;5.97;;
3712;SDS011;1872;51.406;6.856;2023-07-31T05:42:41;9.50;;;5.90;;
3712;SDS011;1872;51.406;6.856;2023-07-31T05:45:06;9.20;;;6.30;;
3712;SDS011;1872;51.406;6.856;2023-07-31T05:47:33;9.50;;;6.27;;
3712;SDS011;1872;51.406;6.856;2023-07-31T05:49:59;7.40;;;5.20;;
3712;SDS011;1872;51.406;6.856;2023-07-31T05:52:24;8.50;;;6.10;;
3712;SDS011;1872;51.406;6.856;2023-07-31T05:54:50;10.53;;;5.67;;
3712;SDS011;1872;51.406;6.856;2023-07-31T05:57:16;8.43;;;6.60;;
3712;SDS011;1872;51.406;6.856;2023-07-31T05:59:42;6.43;;;5.70;;
3712;SDS011;1872;51.406;6.856;2023-07-31T06:02:07;7.40;;;5.57;;
3712;SDS011;1872;51.406;6.856;2023-07-31T06:04:33;6.63;;;5.63;;
3712;SDS011;1872;51.406;6.856;2023-07-31T06:06:59;8.80;;;5.30;;
3712;SDS011;1872;51.406;6.856;2023-07-31T06:09:29;8.10;;;6.33;;
3712;SDS011;1872;51.406;6.856;2023-07-31T06:11:56;6.80;;;5.43;;
3712;SDS011;1872;51.406;6.856;2023-07-31T06:14:22;11.17;;;5.90;;
3712;SDS011;1872;51.406;6.856;2023-07-31T06:16:47;6.20;;;5.50;;
3712;SDS011;1872;51.406;6.856;2023-07-31T06:19:13;9.00;;;7.00;;
3712;SDS011;1872;51.406;6.856;2023-07-31T06:21:38;9.77;;;6.20;;
3712;SDS011;1872;51.406;6.856;2023-07-31T06:24:09;6.87;;;5.80;;
3712;SDS011;1872;51.406;6.856;2023-07-31T06:26:37;8.13;;;5.90;;
3712;SDS011;1872;51.406;6.856;2023-07-31T06:29:02;7.17;;;5.80;;
3712;SDS011;1872;51.406;6.856;2023-07-31T06:31:28;8.37;;;5.97;;
3712;SDS011;1872;51.406;6.856;2023-07-31T06:33:54;8.30;;;5.93;;
3712;SDS011;1872;51.406;6.856;2023-07-31T06:36:19;8.20;;;5.83;;
3712;SDS011;1872;51.406;6.856;2023-07-31T06:38:45;8.67;;;6.03;;
3712;SDS011;1872;51.406;6.856;2023-07-31T06:41:11;7.40;;;6.63;;
3712;SDS011;1872;51.406;6.856;2023-07-31T06:43:36;8.67;;;6.00;;
3712;SDS011;1872;51.406;6.856;2023-07-31T06:46:07;12.10;;;6.33;;
3712;SDS011;1872;51.406;6.856;2023-07-31T06:48:34;8.17;;;5.37;;
3712;SDS011;1872;51.406;6.856;2023-07-31T06:51:00;6.53;;;5.23;;
3712;SDS011;1872;51.406;6.856;2023-07-31T06:53:26;7.40;;;5.90;;
3712;SDS011;1872;51.406;6.856;2023-07-31T06:55:52;8.87;;;5.43;;
3712;SDS011;1872;51.406;6.856;2023-07-31T06:58:17;8.10;;;5.90;;
3712;SDS011;1872;51.406;6.856;2023-07-31T07:00:43;8.67;;;6.20;;
3712;SDS011;1872;51.406;6.856;2023-07-31T07:03:09;6.93;;;5.57;;
3712;SDS011;1872;51.406;6.856;2023-07-31T07:05:45;6.17;;;5.57;;
3712;SDS011;1872;51.406;6.856;2023-07-31T07:08:11;6.93;;;5.60;;
3712;SDS011;1872;51.406;6.856;2023-07-31T07:10:37;7.07;;;6.00;;
3712;SDS011;1872;51.406;6.856;2023-07-31T07:13:03;9.63;;;5.50;;
3712;SDS011;1872;51.406;6.856;2023-07-31T07:15:28;5.90;;;5.13;;
3712;SDS011;1872;51.406;6.856;2023-07-31T07:17:54;7.80;;;5.20;;
3712;SDS011;1872;51.406;6.856;2023-07-31T07:20:19;6.47;;;5.43;;
3712;SDS011;1872;51.406;6.856;2023-07-31T07:22:45;6.87;;;5.40;;
3712;SDS011;1872;51.406;6.856;2023-07-31T07:25:11;6.93;;;5.40;;
3712;SDS011;1872;51.406;6.856;2023-07-31T07:27:37;7.83;;;5.60;;
3712;SDS011;1872;51.406;6.856;2023-07-31T07:30:02;8.67;;;5.80;;
3712;SDS011;1872;51.406;6.856;2023-07-31T07:32:31;8.40;;;6.00;;
3712;SDS011;1872;51.406;6.856;2023-07-31T07:34:57;8.50;;;5.50;;
3712;SDS011;1872;51.406;6.856;2023-07-31T07:37:22;11.83;;;6.30;;
3712;SDS011;1872;51.406;6.856;2023-07-31T07:39:50;8.43;;;5.30;;
3712;SDS011;1872;51.406;6.856;2023-07-31T07:42:16;7.63;;;5.43;;
3712;SDS011;1872;51.406;6.856;2023-07-31T07:44:42;9.07;;;5.50;;
3712;SDS011;1872;51.406;6.856;2023-07-31T07:47:07;8.13;;;5.73;;
3712;SDS011;1872;51.406;6.856;2023-07-31T07:49:33;8.00;;;5.57;;
3712;SDS011;1872;51.406;6.856;2023-07-31T07:52:00;7.47;;;5.23;;
3712;SDS011;1872;51.406;6.856;2023-07-31T07:54:26;6.40;;;5.77;;
3712;SDS011;1872;51.406;6.856;2023-07-31T07:56:52;6.60;;;5.47;;
3712;SDS011;1872;51.406;6.856;2023-07-31T07:59:18;7.43;;;4.90;;
3712;SDS011;1872;51.406;6.856;2023-07-31T08:01:46;6.37;;;5.20;;
3712;SDS011;1872;51.406;6.856;2023-07-31T08:04:11;5.63;;;4.87;;
3712;SDS011;1872;51.406;6.856;2023-07-31T08:06:38;8.20;;;5.93;;
3712;SDS011;1872;51.406;6.856;2023-07-31T08:09:03;5.87;;;5.00;;
3712;SDS011;1872;51.406;6.856;2023-07-31T08:11:32;5.80;;;4.67;;
3712;SDS011;1872;51.406;6.856;2023-07-31T08:13:58;6.67;;;4.47;;
3712;SDS011;1872;51.406;6.856;2023-07-31T08:16:24;4.93;;;4.43;;
3712;SDS011;1872;51.406;6.856;2023-07-31T08:18:49;7.40;;;4.70;;
3712;SDS011;1872;51.406;6.856;2023-07-31T08:21:15;5.70;;;4.43;;
3712;SDS011;1872;51.406;6.856;2023-07-31T08:23:41;4.67;;;4.17;;
3712;SDS011;1872;51.406;6.856;2023-07-31T08:26:06;5.30;;;4.53;;
3712;SDS011;1872;51.406;6.856;2023-07-31T08:28:32;5.30;;;4.80;;
3712;SDS011;1872;51.406;6.856;2023-07-31T08:30:58;4.57;;;4.13;;
3712;SDS011;1872;51.406;6.856;2023-07-31T08:33:23;6.97;;;4.50;;
3712;SDS011;1872;51.406;6.856;2023-07-31T08:35:51;6.50;;;4.90;;
3712;SDS011;1872;51.406;6.856;2023-07-31T08:38:17;7.10;;;4.30;;
3712;SDS011;1872;51.406;6.856;2023-07-31T08:40:43;9.00;;;5.13;;
3712;SDS011;1872;51.406;6.856;2023-07-31T08:43:08;5.30;;;4.43;;
3712;SDS011;1872;51.406;6.856;2023-07-31T08:45:34;5.27;;;4.20;;
3712;SDS011;1872;51.406;6.856;2023-07-31T08:48:00;4.37;;;3.97;;
3712;SDS011;1872;51.406;6.856;2023-07-31T08:50:26;5.93;;;4.50;;
3712;SDS011;1872;51.406;6.856;2023-07-31T08:52:53;6.97;;;4.20;;
3712;SDS011;1872;51.406;6.856;2023-07-31T08:55:21;5.53;;;3.80;;
3712;SDS011;1872;51.406;6.856;2023-07-31T08:57:50;4.47;;;4.07;;
3712;SDS011;1872;51.406;6.856;2023-07-31T09:00:26;6.40;;;4.17;;
3712;SDS011;1872;51.406;6.856;2023-07-31T09:03:07;4.57;;;4.17;;
3712;SDS011;1872;51.406;6.856;2023-07-31T09:05:37;4.70;;;3.97;;
3712;SDS011;1872;51.406;6.856;2023-07-31T09:08:18;5.10;;;4.60;;
3712;SDS011;1872;51.406;6.856;2023-07-31T09:10:45;5.43;;;4.80;;
3712;SDS011;1872;51.406;6.856;2023-07-31T09:13:12;4.70;;;3.80;;
3712;SDS011;1872;51.406;6.856;2023-07-31T09:15:39;5.77;;;4.83;;
3712;SDS011;1872;51.406;6.856;2023-07-31T09:18:07;4.40;;;4.00;;
3712;SDS011;1872;51.406;6.856;2023-07-31T09:20:34;5.13;;;4.37;;
3712;SDS011;1872;51.406;6.856;2023-07-31T09:23:04;4.97;;;4.50;;
3712;SDS011;1872;51.406;6.856;2023-07-31T09:25:35;4.40;;;4.00;;
3712;SDS011;1872;51.406;6.856;2023-07-31T09:28:02;5.13;;;4.40;;
3712;SDS011;1872;51.406;6.856;2023-07-31T09:30:29;5.73;;;4.73;;
3712;SDS011;1872;51.406;6.856;2023-07-31T09:33:02;6.53;;;4.03;;
3712;SDS011;1872;51.406;6.856;2023-07-31T09:35:34;4.33;;;3.97;;
3712;SDS011;1872;51.406;6.856;2023-07-31T09:38:03;6.67;;;4.70;;
3712;SDS011;1872;51.406;6.856;2023-07-31T09:40:43;4.80;;;3.83;;
3712;SDS011;1872;51.406;6.856;2023-07-31T09:43:11;5.87;;;4.63;;
3712;SDS011;1872;51.406;6.856;2023-07-31T09:45:39;4.00;;;3.70;;
3712;SDS011;1872;51.406;6.856;2023-07-31T09:48:09;4.80;;;4.30;;
3712;SDS011;1872;51.406;6.856;2023-07-31T09:50:42;5.37;;;4.20;;
3712;SDS011;1872;51.406;6.856;2023-07-31T09:53:13;3.93;;;3.53;;
3712;SDS011;1872;51.406;6.856;2023-07-31T09:55:40;5.53;;;4.03;;
3712;SDS011;1872;51.406;6.856;2023-07-31T09:58:09;4.53;;;4.13;;
3712;SDS011;1872;51.406;6.856;2023-07-31T10:00:38;5.90;;;4.67;;
3712;SDS011;1872;51.406;6.856;2023-07-31T10:03:07;4.53;;;3.90;;
3712;SDS011;1872;51.406;6.856;2023-07-31T10:05:39;5.60;;;4.17;;
3712;SDS011;1872;51.406;6.856;2023-07-31T10:08:14;5.60;;;3.43;;
3712;SDS011;1872;51.406;6.856;2023-07-31T10:10:41;4.37;;;3.97;;
3712;SDS011;1872;51.406;6.856;2023-07-31T10:13:15;3.90;;;3.50;;
3712;SDS011;1872;51.406;6.856;2023-07-31T10:15:42;3.97;;;3.60;;
3712;SDS011;1872;51.406;6.856;2023-07-31T10:18:08;4.60;;;4.20;;
3712;SDS011;1872;51.406;6.856;2023-07-31T10:20:34;3.83;;;3.53;;
3712;SDS011;1872;51.406;6.856;2023-07-31T10:23:01;5.23;;;4.70;;
3712;SDS011;1872;51.406;6.856;2023-07-31T10:25:28;4.17;;;3.77;;
3712;SDS011;1872;51.406;6.856;2023-07-31T10:27:58;4.43;;;4.03;;
3712;SDS011;1872;51.406;6.856;2023-07-31T10:30:26;6.40;;;5.83;;
3712;SDS011;1872;51.406;6.856;2023-07-31T10:32:57;4.60;;;4.20;;
3712;SDS011;1872;51.406;6.856;2023-07-31T10:35:23;5.53;;;4.37;;
3712;SDS011;1872;51.406;6.856;2023-07-31T10:38:06;4.70;;;4.30;;
3712;SDS011;1872;51.406;6.856;2023-07-31T10:40:36;5.10;;;3.87;;
3712;SDS011;1872;51.406;6.856;2023-07-31T10:43:02;5.00;;;4.50;;
3712;SDS011;1872;51.406;6.856;2023-07-31T10:48:04;5.27;;;4.67;;
3712;SDS011;1872;51.406;6.856;2023-07-31T10:50:40;4.45;;;3.50;;
3712;SDS011;1872;51.406;6.856;2023-07-31T10:53:24;6.40;;;4.60;;
3712;SDS011;1872;51.406;6.856;2023-07-31T10:55:52;4.27;;;3.93;;
3712;SDS011;1872;51.406;6.856;2023-07-31T10:58:18;6.17;;;5.03;;
3712;SDS011;1872;51.406;6.856;2023-07-31T11:00:46;6.73;;;4.83;;
3712;SDS011;1872;51.406;6.856;2023-07-31T11:03:15;4.77;;;4.30;;
3712;SDS011;1872;51.406;6.856;2023-07-31T11:05:43;6.80;;;4.67;;
3712;SDS011;1872;51.406;6.856;2023-07-31T11:08:25;6.33;;;4.87;;
3712;SDS011;1872;51.406;6.856;2023-07-31T11:13:40;6.10;;;4.70;;
3712;SDS011;1872;51.406;6.856;2023-07-31T11:16:06;5.87;;;5.07;;
3712;SDS011;1872;51.406;6.856;2023-07-31T11:18:32;6.43;;;4.70;;
3712;SDS011;1872;51.406;6.856;2023-07-31T11:20:58;5.10;;;4.10;;
3712;SDS011;1872;51.406;6.856;2023-07-31T11:23:24;7.23;;;4.20;;
3712;SDS011;1872;51.406;6.856;2023-07-31T11:25:50;5.10;;;3.93;;
3712;SDS011;1872;51.406;6.856;2023-07-31T11:28:16;5.40;;;4.00;;
3712;SDS011;1872;51.406;6.856;2023-07-31T11:30:43;4.20;;;3.87;;
3712;SDS011;1872;51.406;6.856;2023-07-31T11:33:11;4.10;;;3.80;;
3712;SDS011;1872;51.406;6.856;2023-07-31T11:35:43;5.20;;;4.73;;
3712;SDS011;1872;51.406;6.856;2023-07-31T11:38:26;5.57;;;3.97;;
3712;SDS011;1872;51.406;6.856;2023-07-31T11:40:53;4.87;;;4.33;;
3712;SDS011;1872;51.406;6.856;2023-07-31T11:43:23;4.40;;;3.80;;
3712;SDS011;1872;51.406;6.856;2023-07-31T11:45:56;4.60;;;3.90;;
3712;SDS011;1872;51.406;6.856;2023-07-31T11:48:33;4.20;;;3.73;;
3712;SDS011;1872;51.406;6.856;2023-07-31T11:51:04;4.23;;;3.50;;
3712;SDS011;1872;51.406;6.856;2023-07-31T11:53:47;3.70;;;3.40;;
3712;SDS011;1872;51.406;6.856;2023-07-31T11:56:17;4.40;;;4.00;;
3712;SDS011;1872;51.406;6.856;2023-07-31T11:58:57;4.90;;;3.80;;
3712;SDS011;1872;51.406;6.856;2023-07-31T12:01:24;4.07;;;3.77;;
3712;SDS011;1872;51.406;6.856;2023-07-31T12:03:51;3.93;;;3.53;;
3712;SDS011;1872;51.406;6.856;2023-07-31T12:06:17;3.60;;;3.30;;
3712;SDS011;1872;51.406;6.856;2023-07-31T12:08:45;3.67;;;3.37;;
3712;SDS011;1872;51.406;6.856;2023-07-31T12:11:13;4.13;;;3.60;;
3712;SDS011;1872;51.406;6.856;2023-07-31T12:13:40;4.20;;;3.37;;
3712;SDS011;1872;51.406;6.856;2023-07-31T12:16:05;4.40;;;3.30;;
3712;SDS011;1872;51.406;6.856;2023-07-31T12:18:35;3.63;;;3.33;;
3712;SDS011;1872;51.406;6.856;2023-07-31T12:21:04;4.10;;;3.37;;
3712;SDS011;1872;51.406;6.856;2023-07-31T12:23:31;4.33;;;3.93;;
3712;SDS011;1872;51.406;6.856;2023-07-31T12:26:08;4.70;;;4.30;;
3712;SDS011;1872;51.406;6.856;2023-07-31T12:28:36;4.77;;;3.83;;
3712;SDS011;1872;51.406;6.856;2023-07-31T12:31:03;4.50;;;4.10;;
3712;SDS011;1872;51.406;6.856;2023-07-31T12:33:33;4.23;;;3.83;;
3712;SDS011;1872;51.406;6.856;2023-07-31T12:36:01;4.10;;;3.47;;
3712;SDS011;1872;51.406;6.856;2023-07-31T12:38:28;4.33;;;3.60;;
3712;SDS011;1872;51.406;6.856;2023-07-31T12:40:55;3.90;;;3.60;;
3712;SDS011;1872;51.406;6.856;2023-07-31T12:43:20;3.50;;;3.20;;
3712;SDS011;1872;51.406;6.856;2023-07-31T12:45:49;3.70;;;3.40;;
3712;SDS011;1872;51.406;6.856;2023-07-31T12:48:14;3.93;;;3.30;;
3712;SDS011;1872;51.406;6.856;2023-07-31T12:50:40;4.10;;;3.10;;
3712;SDS011;1872;51.406;6.856;2023-07-31T12:53:06;4.50;;;4.10;;
3712;SDS011;1872;51.406;6.856;2023-07-31T12:55:33;3.43;;;3.13;;
3712;SDS011;1872;51.406;6.856;2023-07-31T12:57:59;4.30;;;3.90;;
3712;SDS011;1872;51.406;6.856;2023-07-31T13:00:26;2.90;;;2.70;;
3712;SDS011;1872;51.406;6.856;2023-07-31T13:02:51;3.90;;;3.40;;
3712;SDS011;1872;51.406;6.856;2023-07-31T13:05:17;3.70;;;3.40;;
3712;SDS011;1872;51.406;6.856;2023-07-31T13:07:47;4.60;;;4.20;;
3712;SDS011;1872;51.406;6.856;2023-07-31T13:10:13;4.20;;;3.80;;
3712;SDS011;1872;51.406;6.856;2023-07-31T13:12:39;3.57;;;3.27;;
3712;SDS011;1872;51.406;6.856;2023-07-31T13:15:05;3.17;;;2.87;;
3712;SDS011;1872;51.406;6.856;2023-07-31T13:17:32;4.00;;;3.60;;
3712;SDS011;1872;51.406;6.856;2023-07-31T13:19:58;3.70;;;3.37;;
3712;SDS011;1872;51.406;6.856;2023-07-31T13:22:24;4.13;;;3.53;;
3712;SDS011;1872;51.406;6.856;2023-07-31T13:24:54;5.00;;;3.93;;
3712;SDS011;1872;51.406;6.856;2023-07-31T13:27:24;4.23;;;3.10;;
3712;SDS011;1872;51.406;6.856;2023-07-31T13:29:52;3.80;;;3.50;;
3712;SDS011;1872;51.406;6.856;2023-07-31T13:32:18;4.20;;;3.80;;
3712;SDS011;1872;51.406;6.856;2023-07-31T13:34:45;3.63;;;3.33;;
3712;SDS011;1872;51.406;6.856;2023-07-31T13:37:12;4.47;;;3.40;;
3712;SDS011;1872;51.406;6.856;2023-07-31T13:39:38;5.77;;;4.17;;
3712;SDS011;1872;51.406;6.856;2023-07-31T13:42:05;4.53;;;3.60;;
3712;SDS011;1872;51.406;6.856;2023-07-31T13:44:33;4.87;;;4.27;;
3712;SDS011;1872;51.406;6.856;2023-07-31T13:47:12;4.60;;;4.10;;
3712;SDS011;1872;51.406;6.856;2023-07-31T13:49:38;4.47;;;4.07;;
3712;SDS011;1872;51.406;6.856;2023-07-31T13:52:04;5.50;;;4.37;;
3712;SDS011;1872;51.406;6.856;2023-07-31T13:54:30;5.80;;;4.80;;
3712;SDS011;1872;51.406;6.856;2023-07-31T13:56:55;5.50;;;5.00;;
3712;SDS011;1872;51.406;6.856;2023-07-31T13:59:21;5.53;;;4.90;;
3712;SDS011;1872;51.406;6.856;2023-07-31T14:01:47;5.80;;;4.73;;
3712;SDS011;1872;51.406;6.856;2023-07-31T14:04:13;5.37;;;4.87;;
3712;SDS011;1872;51.406;6.856;2023-07-31T14:06:38;5.57;;;5.00;;
3712;SDS011;1872;51.406;6.856;2023-07-31T14:09:04;5.83;;;5.03;;
3712;SDS011;1872;51.406;6.856;2023-07-31T14:11:33;4.80;;;4.40;;
3712;SDS011;1872;51.406;6.856;2023-07-31T14:13:59;6.30;;;4.00;;
3712;SDS011;1872;51.406;6.856;2023-07-31T14:16:26;6.27;;;4.70;;
3712;SDS011;1872;51.406;6.856;2023-07-31T14:18:53;7.80;;;5.23;;
3712;SDS011;1872;51.406;6.856;2023-07-31T14:21:19;8.80;;;6.30;;
3712;SDS011;1872;51.406;6.856;2023-07-31T14:23:45;5.77;;;5.17;;
3712;SDS011;1872;51.406;6.856;2023-07-31T14:26:11;5.37;;;4.67;;
3712;SDS011;1872;51.406;6.856;2023-07-31T14:28:37;6.20;;;4.87;;
3712;SDS011;1872;51.406;6.856;2023-07-31T14:31:03;5.20;;;4.73;;
3712;SDS011;1872;51.406;6.856;2023-07-31T14:33:28;6.23;;;4.90;;
3712;SDS011;1872;51.406;6.856;2023-07-31T14:35:54;7.60;;;4.90;;
3712;SDS011;1872;51.406;6.856;2023-07-31T14:38:20;7.37;;;5.13;;
3712;SDS011;1872;51.406;6.856;2023-07-31T14:40:46;5.70;;;5.10;;
3712;SDS011;1872;51.406;6.856;2023-07-31T14:43:11;6.77;;;4.20;;
3712;SDS011;1872;51.406;6.856;2023-07-31T14:45:37;6.10;;;4.37;;
3712;SDS011;1872;51.406;6.856;2023-07-31T14:48:03;5.87;;;5.10;;
3712;SDS011;1872;51.406;6.856;2023-07-31T14:50:29;6.60;;;4.57;;
3712;SDS011;1872;51.406;6.856;2023-07-31T14:52:55;7.20;;;5.50;;
3712;SDS011;1872;51.406;6.856;2023-07-31T14:55:20;4.77;;;4.37;;
3712;SDS011;1872;51.406;6.856;2023-07-31T14:57:46;6.00;;;5.27;;
3712;SDS011;1872;51.406;6.856;2023-07-31T15:00:13;5.53;;;4.73;;
3712;SDS011;1872;51.406;6.856;2023-07-31T15:02:40;5.73;;;5.13;;
3712;SDS011;1872;51.406;6.856;2023-07-31T15:05:06;6.53;;;5.30;;
3712;SDS011;1872;51.406;6.856;2023-07-31T15:07:33;6.03;;;4.67;;
3712;SDS011;1872;51.406;6.856;2023-07-31T15:09:59;5.40;;;4.60;;
3712;SDS011;1872;51.406;6.856;2023-07-31T15:12:25;5.80;;;5.20;;
3712;SDS011;1872;51.406;6.856;2023-07-31T15:14:51;5.57;;;4.80;;
3712;SDS011;1872;51.406;6.856;2023-07-31T15:17:19;5.90;;;4.70;;
3712;SDS011;1872;51.406;6.856;2023-07-31T15:19:49;6.97;;;5.40;;
3712;SDS011;1872;51.406;6.856;2023-07-31T15:22:14;5.27;;;4.63;;